Time;durP1;ratioP1;P1;durP2;ratioP2;P2;SDS_P1;SDS_P2;PMS_P1;PMS_P2;Temp;Humidity;BMP_temperature;BMP_pressure;BME280_temperature;BME280_humidity;BME280_pressure;Samples;Min_cycle;Max_cycle;Signal;HPM_P1;HPM_P2
2021/10/30 00:02:32;;;;;;;4.63;2.20;;;;;;;10.48;100.00;100545.03;6304409;28;20048;-78
2021/10/30 00:05:33;;;;;;;1.92;1.38;;;;;;;10.46;100.00;100541.66;6303653;28;20052;-78
2021/10/30 00:08:36;;;;;;;2.72;1.90;;;;;;;10.53;100.00;100550.88;6304015;28;20064;-78
2021/10/30 00:11:37;;;;;;;3.47;2.10;;;;;;;10.49;100.00;100553.78;6303839;28;20053;-78
2021/10/30 00:14:39;;;;;;;5.22;1.85;;;;;;;10.45;100.00;100573.28;6303627;28;20055;-78
2021/10/30 00:17:41;;;;;;;2.85;1.48;;;;;;;10.49;100.00;100574.78;6303932;28;20067;-78
2021/10/30 00:20:42;;;;;;;2.92;1.55;;;;;;;10.40;100.00;100574.41;6303171;28;20044;-79
2021/10/30 00:23:45;;;;;;;3.13;2.03;;;;;;;10.33;100.00;100585.31;6302633;28;20419;-78
2021/10/30 00:26:47;;;;;;;1.63;1.38;;;;;;;10.26;100.00;100591.81;6302935;28;20138;-77
2021/10/30 00:29:48;;;;;;;3.63;1.92;;;;;;;10.18;100.00;100583.50;6303778;28;20055;-78
2021/10/30 00:32:49;;;;;;;2.50;1.80;;;;;;;10.10;100.00;100584.75;6301913;28;20450;-77
2021/10/30 00:35:51;;;;;;;3.25;1.73;;;;;;;10.02;100.00;100586.94;6303362;28;20048;-78
2021/10/30 00:38:53;;;;;;;5.10;1.30;;;;;;;9.99;100.00;100583.63;6302886;28;20488;-78
2021/10/30 00:41:56;;;;;;;3.08;1.58;;;;;;;9.84;100.00;100586.13;6302933;28;20051;-77
2021/10/30 00:44:57;;;;;;;4.00;1.50;;;;;;;9.78;100.00;100596.13;6303025;28;20052;-78
2021/10/30 00:47:58;;;;;;;2.33;1.70;;;;;;;9.70;100.00;100588.63;6303890;28;20502;-78
2021/10/30 00:51:01;;;;;;;3.63;1.80;;;;;;;9.63;100.00;100587.28;6303922;28;20040;-77
2021/10/30 00:54:04;;;;;;;3.90;2.00;;;;;;;9.55;100.00;100577.19;6303307;28;20053;-78
2021/10/30 00:57:07;;;;;;;3.75;2.03;;;;;;;9.48;100.00;100590.66;6303787;28;20059;-78
2021/10/30 01:00:10;;;;;;;3.08;1.85;;;;;;;9.39;100.00;100590.22;6304250;28;20478;-78
2021/10/30 01:03:11;;;;;;;5.15;2.22;;;;;;;9.35;100.00;100590.44;6303958;28;20044;-79
2021/10/30 01:06:13;;;;;;;2.50;1.80;;;;;;;9.29;100.00;100589.00;6302895;28;20048;-78
2021/10/30 01:09:17;;;;;;;4.28;2.08;;;;;;;9.26;100.00;100583.03;6303384;28;20048;-78
2021/10/30 01:12:19;;;;;;;2.00;1.48;;;;;;;9.23;100.00;100589.31;6303772;28;20051;-78
2021/10/30 01:15:20;;;;;;;2.75;1.90;;;;;;;9.21;100.00;100579.81;6302524;28;20052;-78
2021/10/30 01:18:23;;;;;;;4.65;1.63;;;;;;;9.16;100.00;100582.66;6302801;28;20419;-77
2021/10/30 01:21:28;;;;;;;6.35;1.95;;;;;;;9.13;100.00;100585.47;6302900;28;20514;-77
2021/10/30 01:24:29;;;;;;;4.10;1.80;;;;;;;9.07;100.00;100577.88;6302588;28;20052;-78
2021/10/30 01:27:30;;;;;;;2.85;1.70;;;;;;;9.00;100.00;100563.41;6301462;28;20044;-78
2021/10/30 01:30:32;;;;;;;3.15;1.60;;;;;;;8.99;100.00;100578.25;6303466;28;20044;-78
2021/10/30 01:33:33;;;;;;;2.78;1.67;;;;;;;8.97;100.00;100579.28;6302841;28;20049;-77
2021/10/30 01:36:37;;;;;;;3.63;1.83;;;;;;;8.96;100.00;100578.41;6303328;28;20048;-78
2021/10/30 01:39:38;;;;;;;3.88;1.98;;;;;;;8.97;100.00;100581.88;6303110;28;20135;-78
2021/10/30 01:42:40;;;;;;;4.35;2.42;;;;;;;8.96;100.00;100572.34;6302990;28;20099;-78
2021/10/30 01:45:43;;;;;;;4.63;1.85;;;;;;;8.94;100.00;100572.38;6301781;28;20056;-78
2021/10/30 01:48:45;;;;;;;4.30;2.20;;;;;;;8.93;100.00;100569.84;6302514;28;20086;-78
2021/10/30 01:51:48;;;;;;;2.88;1.95;;;;;;;8.93;100.00;100559.38;6302375;28;20044;-78
2021/10/30 01:54:49;;;;;;;3.42;2.20;;;;;;;8.93;100.00;100564.63;6302212;28;20044;-78
2021/10/30 01:57:51;;;;;;;4.03;1.70;;;;;;;8.93;100.00;100559.38;6302405;28;20051;-79
2021/10/30 02:00:54;;;;;;;3.85;2.13;;;;;;;8.91;100.00;100556.84;6301890;28;20131;-77
2021/10/30 02:03:55;;;;;;;4.18;1.92;;;;;;;8.92;100.00;100558.53;6302193;28;20071;-78
2021/10/30 02:06:58;;;;;;;4.22;2.50;;;;;;;8.91;100.00;100556.00;6302066;28;20052;-78
2021/10/30 02:09:59;;;;;;;3.50;2.20;;;;;;;8.91;100.00;100548.13;6301998;28;20049;-78
2021/10/30 02:13:01;;;;;;;6.07;2.33;;;;;;;8.89;100.00;100540.31;6301980;28;20135;-79
2021/10/30 02:16:02;;;;;;;4.10;2.45;;;;;;;8.88;100.00;100536.84;6300997;28;20411;-77
2021/10/30 02:19:04;;;;;;;3.50;1.92;;;;;;;8.94;100.00;100542.72;6301308;28;20143;-77
2021/10/30 02:22:06;;;;;;;3.50;2.20;;;;;;;8.86;100.00;100536.09;6302127;28;20041;-78
2021/10/30 02:25:10;;;;;;;4.60;2.05;;;;;;;8.85;100.00;100541.41;6300460;28;20045;-78
2021/10/30 02:28:11;;;;;;;4.60;2.28;;;;;;;8.83;100.00;100520.53;6301544;28;20052;-79
2021/10/30 02:31:13;;;;;;;4.15;2.20;;;;;;;8.82;100.00;100520.59;6301251;28;20508;-78
2021/10/30 02:34:14;;;;;;;5.65;3.05;;;;;;;8.83;100.00;100524.91;6301526;28;20048;-78
2021/10/30 02:37:17;;;;;;;6.90;2.92;;;;;;;8.81;100.00;100517.16;6302209;28;20411;-78
2021/10/30 02:40:18;;;;;;;4.85;2.30;;;;;;;8.78;100.00;100524.31;6301853;28;20053;-78
2021/10/30 02:43:19;;;;;;;4.07;2.33;;;;;;;8.79;100.00;100526.00;6301525;28;20056;-78
2021/10/30 02:46:21;;;;;;;4.55;2.10;;;;;;;8.72;100.00;100520.22;6301708;28;20052;-78
2021/10/30 02:49:22;;;;;;;5.88;2.85;;;;;;;8.72;100.00;100521.97;6301883;28;20389;-78
2021/10/30 02:52:25;;;;;;;7.70;3.22;;;;;;;8.73;100.00;100528.94;6302226;28;20526;-78
2021/10/30 02:55:27;;;;;;;4.88;2.70;;;;;;;8.73;100.00;100532.38;6301750;28;20743;-79
2021/10/30 02:58:28;;;;;;;5.82;3.28;;;;;;;8.72;100.00;100540.31;6302670;28;20059;-78
2021/10/30 03:01:29;;;;;;;8.35;3.28;;;;;;;8.70;100.00;100529.06;6301814;28;20055;-77
2021/10/30 03:04:31;;;;;;;4.63;2.60;;;;;;;8.68;100.00;100526.53;6301860;28;20044;-78
2021/10/30 03:07:34;;;;;;;6.47;2.45;;;;;;;8.67;100.00;100503.84;6302029;28;20126;-79
2021/10/30 03:10:36;;;;;;;4.10;2.90;;;;;;;8.66;100.00;100514.41;6301485;28;20450;-79
2021/10/30 03:13:37;;;;;;;7.28;2.92;;;;;;;8.70;100.00;100511.56;6302253;28;20392;-78
2021/10/30 03:16:38;;;;;;;6.30;3.33;;;;;;;8.67;100.00;100510.88;6302756;28;20049;-78
2021/10/30 03:19:40;;;;;;;4.82;2.97;;;;;;;8.68;100.00;100508.19;6303246;28;20044;-78
2021/10/30 03:22:43;;;;;;;4.93;2.75;;;;;;;8.70;100.00;100500.25;6302615;28;20067;-78
2021/10/30 03:25:44;;;;;;;4.85;2.97;;;;;;;8.71;100.00;100496.69;6325312;22;20048;-87
2021/10/30 03:28:46;;;;;;;4.38;2.55;;;;;;;8.70;100.00;100492.38;6304762;28;20049;-86
2021/10/30 03:31:47;;;;;;;5.65;3.58;;;;;;;8.67;100.00;100493.38;6304446;28;20411;-86
2021/10/30 03:34:48;;;;;;;4.30;2.53;;;;;;;8.70;100.00;100490.63;6305055;28;20048;-87
2021/10/30 03:37:51;;;;;;;4.53;2.35;;;;;;;8.72;100.00;100487.91;6303937;28;20052;-86
2021/10/30 03:40:53;;;;;;;4.90;2.45;;;;;;;8.71;100.00;100483.59;6274512;28;20052;-86
2021/10/30 03:43:54;;;;;;;4.80;2.95;;;;;;;8.66;100.00;100486.44;6272446;28;20717;-87
2021/10/30 03:46:56;;;;;;;5.43;3.20;;;;;;;8.66;100.00;100485.59;6274049;28;20045;-87
2021/10/30 03:49:57;;;;;;;4.90;2.35;;;;;;;8.64;100.00;100473.44;6272992;28;20052;-87
2021/10/30 03:53:00;;;;;;;7.10;2.95;;;;;;;8.64;100.00;100475.22;6272659;28;20048;-86
2021/10/30 03:56:01;;;;;;;4.25;2.67;;;;;;;8.62;100.00;100467.41;6279263;28;20049;-87
2021/10/30 03:59:03;;;;;;;4.18;2.50;;;;;;;8.67;100.00;100463.72;6281512;28;20439;-86
2021/10/30 04:02:05;;;;;;;4.22;2.38;;;;;;;8.63;100.00;100460.44;6281367;28;20056;-87
2021/10/30 04:05:07;;;;;;;5.65;2.85;;;;;;;8.69;100.00;100452.25;6280186;28;20049;-87
2021/10/30 04:08:13;;;;;;;10.40;3.55;;;;;;;8.78;100.00;100464.03;6300737;28;20419;-86
2021/10/30 04:11:15;;;;;;;6.82;3.75;;;;;;;8.84;100.00;100463.72;6306893;28;20483;-87
2021/10/30 04:14:16;;;;;;;6.38;3.28;;;;;;;8.93;100.00;100463.25;6308842;28;20056;-87
2021/10/30 04:17:18;;;;;;;7.65;3.28;;;;;;;9.00;100.00;100456.78;6308652;28;20060;-87
2021/10/30 04:20:19;;;;;;;6.53;3.17;;;;;;;9.07;100.00;100455.53;6307978;28;20044;-87
2021/10/30 04:23:22;;;;;;;11.90;2.88;;;;;;;9.11;100.00;100457.06;6308314;28;20045;-86
2021/10/30 04:26:23;;;;;;;5.25;3.13;;;;;;;9.21;100.00;100443.47;6302477;28;20059;-87
2021/10/30 04:29:27;;;;;;;4.90;2.50;;;;;;;9.20;100.00;100453.13;6301630;28;20048;-86
2021/10/30 04:32:30;;;;;;;7.10;3.78;;;;;;;9.19;100.00;100448.81;6302168;28;20178;-87
2021/10/30 04:35:32;;;;;;;7.18;3.20;;;;;;;9.26;100.00;100430.97;6301097;28;20141;-86
2021/10/30 04:38:36;;;;;;;7.32;3.42;;;;;;;9.24;100.00;100443.31;6300373;28;20056;-86
2021/10/30 04:41:39;;;;;;;4.50;2.70;;;;;;;9.28;100.00;100439.63;6300758;28;20044;-86
2021/10/30 04:44:41;;;;;;;9.05;3.40;;;;;;;9.30;100.00;100433.34;6305211;28;20051;-86
2021/10/30 04:47:42;;;;;;;7.18;3.25;;;;;;;9.31;100.00;100436.81;6305274;28;20060;-87
2021/10/30 04:50:44;;;;;;;3.95;2.20;;;;;;;9.32;100.00;100428.88;6305989;28;20048;-86
2021/10/30 04:53:47;;;;;;;6.40;2.90;;;;;;;9.35;100.00;100430.47;6306302;28;20059;-86
2021/10/30 04:56:48;;;;;;;5.15;2.90;;;;;;;9.35;100.00;100428.69;6305293;28;20045;-86
2021/10/30 04:59:49;;;;;;;5.30;3.03;;;;;;;9.34;100.00;100429.63;6305086;28;20048;-86
2021/10/30 05:02:51;;;;;;;4.18;2.45;;;;;;;9.31;100.00;100442.94;6305765;28;20426;-86
2021/10/30 05:05:52;;;;;;;5.28;2.88;;;;;;;9.32;100.00;100428.03;6305112;28;20049;-86
2021/10/30 05:08:55;;;;;;;6.82;3.45;;;;;;;9.34;100.00;100442.75;6305785;28;20056;-86
2021/10/30 05:11:56;;;;;;;3.65;2.28;;;;;;;9.35;100.00;100459.31;6305269;28;20036;-86
2021/10/30 05:14:58;;;;;;;6.55;2.90;;;;;;;9.34;100.00;100442.75;6303726;28;20052;-86
2021/10/30 05:18:00;;;;;;;4.75;2.47;;;;;;;9.34;100.00;100450.59;6279753;28;20049;-87
2021/10/30 05:21:01;;;;;;;4.63;3.03;;;;;;;9.35;100.00;100449.69;6279931;28;20049;-86
2021/10/30 05:24:04;;;;;;;5.38;2.70;;;;;;;9.33;100.00;100446.31;6296677;28;20059;-87
2021/10/30 05:27:06;;;;;;;6.63;2.90;;;;;;;9.30;100.00;100433.34;6284397;28;20055;-87
2021/10/30 05:30:08;;;;;;;6.25;3.33;;;;;;;9.27;100.00;100415.16;6279712;28;20045;-86
2021/10/30 05:33:09;;;;;;;5.00;2.90;;;;;;;9.30;100.00;100419.38;6279693;28;20045;-86
2021/10/30 05:36:12;;;;;;;5.68;2.67;;;;;;;9.28;100.00;100416.84;6285828;28;20048;-84
2021/10/30 05:39:17;;;;;;;5.10;2.60;;;;;;;9.29;100.00;100417.69;6302416;28;20565;-84
2021/10/30 05:42:18;;;;;;;4.80;2.63;;;;;;;9.32;100.00;100407.91;6300290;28;20059;-85
2021/10/30 05:45:20;;;;;;;6.15;2.78;;;;;;;9.34;100.00;100400.78;6299856;28;20048;-84
2021/10/30 05:48:22;;;;;;;6.07;2.58;;;;;;;9.34;100.00;100403.41;6300477;28;20056;-82
2021/10/30 05:51:23;;;;;;;10.25;3.25;;;;;;;9.39;100.00;100398.75;6300360;28;20051;-82
2021/10/30 05:54:26;;;;;;;5.63;2.60;;;;;;;9.38;100.00;100402.31;6299302;28;20060;-83
2021/10/30 05:57:27;;;;;;;11.35;3.63;;;;;;;9.36;100.00;100403.34;6281074;28;20491;-83
2021/10/30 06:00:29;;;;;;;7.40;2.70;;;;;;;9.33;100.00;100411.38;6289683;28;20040;-85
2021/10/30 06:03:30;;;;;;;6.47;2.80;;;;;;;9.31;100.00;100414.09;6300288;28;20049;-86
2021/10/30 06:06:32;;;;;;;4.85;2.55;;;;;;;9.32;100.00;100413.16;6300359;28;20064;-87
2021/10/30 06:09:35;;;;;;;3.58;2.30;;;;;;;9.32;100.00;100405.28;6300564;28;20040;-84
2021/10/30 06:12:39;;;;;;;5.03;2.85;;;;;;;9.44;100.00;100411.63;6298884;28;20041;-85
2021/10/30 06:15:41;;;;;;;3.97;2.40;;;;;;;9.44;100.00;100400.28;6301629;28;20047;-82
2021/10/30 06:18:43;;;;;;;4.65;2.72;;;;;;;9.49;100.00;100406.13;6300767;28;20055;-84
2021/10/30 06:21:44;;;;;;;6.07;3.13;;;;;;;9.50;100.00;100390.31;6300229;28;20070;-85
2021/10/30 06:24:47;;;;;;;6.22;2.92;;;;;;;9.49;100.00;100391.22;6300136;28;20052;-84
2021/10/30 06:27:48;;;;;;;5.05;2.83;;;;;;;9.52;100.00;100387.59;6297883;28;20049;-84
2021/10/30 06:30:49;;;;;;;4.45;2.65;;;;;;;9.51;100.00;100381.53;6300490;28;20052;-84
2021/10/30 06:33:51;;;;;;;6.68;2.95;;;;;;;9.53;100.00;100387.50;6299843;28;20045;-84
2021/10/30 06:36:52;;;;;;;5.38;2.60;;;;;;;9.49;100.00;100383.38;6300473;28;20056;-84
2021/10/30 06:39:55;;;;;;;6.18;2.92;;;;;;;9.49;100.00;100383.38;6300733;28;20096;-84
2021/10/30 06:42:56;;;;;;;3.90;2.25;;;;;;;9.48;100.00;100379.06;6301490;28;20419;-84
2021/10/30 06:45:58;;;;;;;4.55;2.45;;;;;;;9.49;100.00;100374.66;6300532;28;20056;-84
2021/10/30 06:49:00;;;;;;;7.13;3.03;;;;;;;9.48;100.00;100388.72;6302042;28;20041;-84
2021/10/30 06:52:02;;;;;;;5.20;2.72;;;;;;;9.50;100.00;100386.88;6300464;28;20048;-84
2021/10/30 06:55:07;;;;;;;4.50;2.80;;;;;;;9.53;100.00;100376.19;6300670;28;20059;-84
2021/10/30 06:58:08;;;;;;;3.38;2.28;;;;;;;9.55;100.00;100379.59;6299980;28;20052;-84
2021/10/30 07:01:10;;;;;;;6.85;2.80;;;;;;;9.58;100.00;100376.78;6299724;28;20064;-84
2021/10/30 07:04:12;;;;;;;8.85;2.55;;;;;;;9.59;100.00;100376.72;6298811;28;20495;-84
2021/10/30 07:07:13;;;;;;;5.45;3.00;;;;;;;9.58;100.00;100376.78;6300289;28;20060;-84
2021/10/30 07:10:17;;;;;;;3.83;2.08;;;;;;;9.59;100.00;100387.19;6301861;28;20049;-84
2021/10/30 07:13:18;;;;;;;2.97;2.00;;;;;;;9.61;100.00;100389.72;6300933;28;20050;-84
2021/10/30 07:16:20;;;;;;;5.50;2.60;;;;;;;9.64;100.00;100386.94;6299538;28;20412;-84
2021/10/30 07:19:21;;;;;;;4.40;2.60;;;;;;;9.62;100.00;100389.63;6299831;28;20044;-84
2021/10/30 07:22:22;;;;;;;3.63;2.45;;;;;;;9.66;100.00;100385.91;6301093;28;20044;-84
2021/10/30 07:25:25;;;;;;;6.22;2.03;;;;;;;9.69;100.00;100394.56;6299920;28;20513;-82
2021/10/30 07:28:28;;;;;;;4.38;2.30;;;;;;;9.72;100.00;100389.13;6303362;28;20423;-84
2021/10/30 07:31:29;;;;;;;5.93;2.05;;;;;;;9.74;100.00;100382.03;6294258;28;20518;-85
2021/10/30 07:34:30;;;;;;;4.82;2.30;;;;;;;9.81;100.00;100389.50;6294837;28;20056;-84
2021/10/30 07:37:33;;;;;;;4.57;2.40;;;;;;;9.79;100.00;100390.50;6302927;28;20044;-84
2021/10/30 07:40:36;;;;;;;5.03;2.78;;;;;;;9.78;100.00;100387.03;6302292;28;20052;-84
2021/10/30 07:43:38;;;;;;;6.07;2.45;;;;;;;9.82;100.00;100390.31;6302329;28;20040;-84
2021/10/30 07:46:39;;;;;;;7.03;3.03;;;;;;;9.80;100.00;100384.31;6307060;28;20055;-84
2021/10/30 07:49:40;;;;;;;7.32;3.25;;;;;;;9.81;100.00;100380.75;6307463;28;20420;-84
2021/10/30 07:52:42;;;;;;;6.80;3.25;;;;;;;9.81;100.00;100386.00;6307427;28;20041;-84
2021/10/30 07:55:47;;;;;;;5.05;2.85;;;;;;;9.81;100.00;100388.63;6308086;28;20049;-84
2021/10/30 07:58:49;;;;;;;6.85;3.38;;;;;;;9.83;100.00;100397.25;6307722;28;20094;-84
2021/10/30 08:01:50;;;;;;;10.57;3.20;;;;;;;9.85;100.00;100390.97;6302282;28;20053;-85
2021/10/30 08:04:52;;;;;;;11.57;3.25;;;;;;;9.87;100.00;100388.28;6292271;28;20213;-84
2021/10/30 08:07:53;;;;;;;5.53;2.78;;;;;;;9.88;100.00;100388.19;6291279;28;20048;-83
2021/10/30 08:10:56;;;;;;;8.00;3.17;;;;;;;9.90;100.00;100382.84;6294003;28;20049;-84
2021/10/30 08:13:57;;;;;;;8.15;3.65;;;;;;;9.89;100.00;100384.63;6292306;28;20047;-84
2021/10/30 08:16:58;;;;;;;4.82;2.30;;;;;;;9.93;100.00;100384.47;6297023;28;20045;-84
2021/10/30 08:20:00;;;;;;;5.13;3.05;;;;;;;9.93;100.00;100382.69;6303450;28;20475;-86
2021/10/30 08:23:02;;;;;;;6.13;2.50;;;;;;;9.91;100.00;100372.28;6303481;28;20048;-84
2021/10/30 08:26:05;;;;;;;5.43;2.88;;;;;;;9.91;100.00;100366.19;6300841;28;20049;-86
2021/10/30 08:29:07;;;;;;;4.40;2.42;;;;;;;9.93;100.00;100368.72;6284307;28;20052;-86
2021/10/30 08:32:10;;;;;;;6.70;2.45;;;;;;;9.95;100.00;100367.72;6279542;28;20049;-87
2021/10/30 08:35:11;;;;;;;5.03;2.85;;;;;;;9.97;100.00;100365.00;6280462;28;20057;-88
2021/10/30 08:38:14;;;;;;;3.13;2.03;;;;;;;9.99;100.00;100360.47;6278205;28;20045;-79
2021/10/30 08:41:16;;;;;;;7.25;3.15;;;;;;;10.00;100.00;100364.81;6277977;28;20064;-80
2021/10/30 08:44:19;;;;;;;8.50;2.72;;;;;;;10.01;100.00;100364.72;6275844;28;20045;-82
2021/10/30 08:47:21;;;;;;;4.88;2.25;;;;;;;10.05;100.00;100365.41;6276366;28;20052;-81
2021/10/30 08:50:23;;;;;;;3.92;2.42;;;;;;;10.06;100.00;100365.31;6276196;28;20484;-81
2021/10/30 08:53:25;;;;;;;5.55;2.33;;;;;;;10.08;100.00;100357.31;6275771;28;20045;-81
2021/10/30 08:56:28;;;;;;;3.60;2.30;;;;;;;10.10;100.00;100353.69;6292316;28;20052;-79
2021/10/30 08:59:40;;;;;;;3.90;2.42;;;;;;;10.12;100.00;100345.72;6302738;28;20052;-83
2021/10/30 09:02:42;;;;;;;3.90;2.35;;;;;;;10.13;100.00;100350.91;6301825;28;20052;-85
2021/10/30 09:05:45;;;;;;;4.63;2.17;;;;;;;10.16;100.00;100348.06;6301949;28;20053;-82
2021/10/30 09:08:46;;;;;;;5.50;2.97;;;;;;;10.16;100.00;100339.34;6303259;28;20127;-83
2021/10/30 09:11:56;;;;;;;5.68;2.25;;;;;;;10.19;100.00;100338.34;6303604;28;20064;-83
2021/10/30 09:14:59;;;;;;;6.25;2.55;;;;;;;10.21;100.00;100339.94;6292837;28;20041;-82
2021/10/30 09:18:01;;;;;;;4.97;2.67;;;;;;;10.23;100.00;100332.81;6296626;28;20045;-80
2021/10/30 09:21:15;;;;;;;5.03;2.70;;;;;;;10.26;100.00;100330.03;6301513;28;20056;-82
2021/10/30 09:24:16;;;;;;;5.10;2.88;;;;;;;10.28;100.00;100315.06;6316770;22;20037;-77
2021/10/30 09:27:21;;;;;;;4.82;3.08;;;;;;;10.30;100.00;100313.16;6275869;28;20049;-78
2021/10/30 09:30:26;;;;;;;6.28;3.15;;;;;;;10.32;100.00;100297.34;6273216;28;20057;-78
2021/10/30 09:33:30;;;;;;;6.78;3.38;;;;;;;10.34;100.00;100295.44;6255952;28;20049;-78
2021/10/30 09:36:33;;;;;;;5.93;2.40;;;;;;;10.38;100.00;100295.16;6241754;28;20065;-78
2021/10/30 09:39:34;;;;;;;7.28;2.55;;;;;;;10.42;100.00;100293.22;6232616;28;20053;-78
2021/10/30 09:42:36;;;;;;;8.75;3.47;;;;;;;10.45;100.00;100303.56;6239530;28;20053;-79
2021/10/30 09:45:46;;;;;;;4.57;2.78;;;;;;;10.44;100.00;100291.31;6237120;28;20053;-78
2021/10/30 09:48:48;;;;;;;7.60;4.28;;;;;;;10.46;100.00;100288.63;6256220;28;20471;-79
2021/10/30 09:51:53;;;;;;;10.13;3.63;;;;;;;10.47;100.00;100285.06;6262961;28;20077;-79
2021/10/30 09:54:55;;;;;;;9.60;4.88;;;;;;;10.48;100.00;100287.59;6263772;28;20505;-79
2021/10/30 09:58:05;;;;;;;11.60;6.03;;;;;;;10.50;100.00;100293.59;6262179;28;20053;-78
2021/10/30 10:01:10;;;;;;;8.20;4.20;;;;;;;10.51;100.00;100282.16;6259338;28;20045;-80
2021/10/30 10:04:12;;;;;;;6.57;3.40;;;;;;;10.54;100.00;100275.88;6241314;28;20041;-78
2021/10/30 10:07:14;;;;;;;6.65;3.60;;;;;;;10.55;100.00;100280.19;6248217;28;20567;-77
2021/10/30 10:10:15;;;;;;;5.00;2.72;;;;;;;10.57;100.00;100276.50;6248375;28;20048;-76
2021/10/30 10:13:19;;;;;;;8.45;3.95;;;;;;;10.61;100.00;100269.28;6246373;28;20061;-73
2021/10/30 10:16:22;;;;;;;9.10;3.88;;;;;;;10.64;100.00;100264.72;6245071;28;20053;-75
2021/10/30 10:19:24;;;;;;;7.68;3.65;;;;;;;10.64;100.00;100245.47;6243195;28;20064;-76
2021/10/30 10:22:26;;;;;;;11.32;4.63;;;;;;;10.68;100.00;100235.63;6243598;28;20056;-76
2021/10/30 10:25:30;;;;;;;10.15;5.60;;;;;;;10.75;100.00;100229.88;6244273;28;20054;-76
2021/10/30 10:28:35;;;;;;;7.75;4.47;;;;;;;10.74;100.00;100220.31;6243036;28;20489;-76
2021/10/30 10:31:48;;;;;;;7.70;4.05;;;;;;;10.81;100.00;100212.84;6244574;28;20053;-75
2021/10/30 10:34:51;;;;;;;9.07;4.55;;;;;;;10.85;100.00;100211.72;6246315;28;20045;-76
2021/10/30 10:37:52;;;;;;;6.80;3.90;;;;;;;10.84;99.88;100212.69;6247236;28;20041;-75
2021/10/30 10:40:56;;;;;;;5.82;3.58;;;;;;;10.83;100.00;100214.47;6246549;28;20142;-75
2021/10/30 10:43:59;;;;;;;5.22;3.58;;;;;;;10.88;100.00;100212.38;6247560;28;20482;-76
2021/10/30 10:47:01;;;;;;;6.70;3.40;;;;;;;10.88;100.00;100199.25;6247553;28;20052;-75
2021/10/30 10:50:07;;;;;;;7.70;3.55;;;;;;;10.89;100.00;100200.94;6227076;28;20049;-75
2021/10/30 10:53:18;;;;;;;7.57;3.17;;;;;;;10.92;100.00;100198.13;6247762;28;20041;-75
2021/10/30 10:56:19;;;;;;;6.15;3.00;;;;;;;10.89;100.00;100186.94;6245877;28;20049;-75
2021/10/30 10:59:39;;;;;;;8.25;3.50;;;;;;;10.89;100.00;100168.53;6247321;28;20424;-74
2021/10/30 11:02:52;;;;;;;8.77;3.22;;;;;;;10.92;99.80;100161.31;6247477;28;20139;-75
2021/10/30 11:05:57;;;;;;;8.43;3.53;;;;;;;10.94;97.48;100161.19;6245735;28;20041;-75
2021/10/30 11:09:10;;;;;;;7.82;3.08;;;;;;;10.95;98.44;100157.66;6247291;28;20048;-76
2021/10/30 11:12:20;;;;;;;7.03;2.72;;;;;;;11.01;96.54;100152.00;6223051;28;20072;-76
2021/10/30 11:15:22;;;;;;;7.90;3.67;;;;;;;11.02;97.63;100164.19;6222168;28;20060;-75
2021/10/30 11:18:31;;;;;;;5.93;3.25;;;;;;;11.06;97.34;100170.94;6223593;28;20417;-75
2021/10/30 11:21:37;;;;;;;9.20;3.22;;;;;;;11.11;98.19;100170.63;6222495;28;20519;-76
2021/10/30 11:24:52;;;;;;;6.13;3.13;;;;;;;11.12;100.00;100162.63;6224080;28;20417;-74
2021/10/30 11:27:55;;;;;;;5.75;2.78;;;;;;;11.14;100.00;100168.66;6246856;28;20179;-74
2021/10/30 11:30:58;;;;;;;6.00;3.25;;;;;;;11.23;99.56;100163.75;6236356;28;20042;-74
2021/10/30 11:34:00;;;;;;;5.68;2.88;;;;;;;11.26;100.00;100167.00;6246170;28;20041;-74
2021/10/30 11:37:02;;;;;;;4.32;2.30;;;;;;;11.32;99.56;100171.03;6246375;28;20529;-73
2021/10/30 11:40:04;;;;;;;7.03;2.63;;;;;;;11.38;100.00;100165.38;6246436;28;20049;-74
2021/10/30 11:43:06;;;;;;;4.75;2.88;;;;;;;11.42;98.65;100165.06;6246617;28;20049;-75
2021/10/30 11:46:11;;;;;;;5.47;2.85;;;;;;;11.48;97.29;100158.53;6233870;28;20057;-71
2021/10/30 11:49:16;;;;;;;8.82;3.67;;;;;;;11.54;94.17;100158.16;6246656;28;20049;-72
2021/10/30 11:52:17;;;;;;;6.38;2.97;;;;;;;11.58;92.57;100151.75;6228881;28;20089;-74
2021/10/30 11:55:22;;;;;;;4.30;3.00;;;;;;;11.63;92.32;100141.75;6230697;28;20111;-74
2021/10/30 11:58:38;;;;;;;7.22;3.45;;;;;;;11.66;93.23;100165.19;6251319;28;20529;-74
2021/10/30 12:01:42;;;;;;;4.38;2.88;;;;;;;11.71;91.09;100149.09;6249990;28;20523;-74
2021/10/30 12:04:44;;;;;;;5.13;2.85;;;;;;;11.70;88.29;100152.69;6250701;28;20045;-74
2021/10/30 12:07:48;;;;;;;5.63;2.45;;;;;;;11.73;89.97;100152.50;6249859;28;20056;-74
2021/10/30 12:10:50;;;;;;;6.22;4.03;;;;;;;11.77;93.44;100137.34;6251154;28;20061;-74
2021/10/30 12:13:54;;;;;;;5.75;3.05;;;;;;;11.75;94.05;100134.78;6249098;28;20049;-74
2021/10/30 12:17:00;;;;;;;6.93;3.20;;;;;;;11.71;95.20;100145.63;6251137;28;20053;-75
2021/10/30 12:20:05;;;;;;;5.22;3.05;;;;;;;11.72;90.03;100135.00;6250666;28;20057;-75
2021/10/30 12:23:12;;;;;;;9.52;3.47;;;;;;;11.72;91.77;100119.22;6250417;28;20060;-75
2021/10/30 12:26:13;;;;;;;5.63;2.88;;;;;;;11.74;91.61;100127.84;6238617;28;20685;-74
2021/10/30 12:29:15;;;;;;;4.47;2.70;;;;;;;11.77;92.42;100114.47;6236349;28;20057;-74
2021/10/30 12:32:19;;;;;;;5.25;2.85;;;;;;;11.76;92.73;100122.47;6241325;28;20056;-73
2021/10/30 12:35:23;;;;;;;7.07;3.58;;;;;;;11.79;94.00;100103.84;6249922;28;20071;-74
2021/10/30 12:38:25;;;;;;;6.50;3.17;;;;;;;11.86;93.09;100113.03;6246929;28;20064;-75
2021/10/30 12:41:33;;;;;;;5.60;3.40;;;;;;;11.89;93.32;100118.06;6250400;28;20136;-74
2021/10/30 12:44:36;;;;;;;4.50;2.60;;;;;;;11.97;92.43;100118.41;6246441;28;20049;-74
2021/10/30 12:47:40;;;;;;;6.45;3.13;;;;;;;12.02;92.33;100108.38;6249353;28;20049;-74
2021/10/30 12:50:42;;;;;;;5.22;2.92;;;;;;;12.06;92.25;100122.19;6243458;28;20054;-74
2021/10/30 12:53:45;;;;;;;7.20;3.40;;;;;;;12.08;90.19;100115.00;6237936;28;20462;-74
2021/10/30 12:56:46;;;;;;;5.35;3.83;;;;;;;12.16;89.22;100091.63;6247820;28;20054;-74
2021/10/30 12:59:47;;;;;;;5.57;2.92;;;;;;;12.12;90.24;100098.88;6250009;28;20057;-74
2021/10/30 13:02:51;;;;;;;5.82;2.83;;;;;;;12.13;90.28;100094.50;6243386;28;20056;-73
2021/10/30 13:05:57;;;;;;;5.07;2.80;;;;;;;12.10;91.43;100087.63;6248869;28;20049;-74
2021/10/30 13:09:03;;;;;;;5.38;3.47;;;;;;;12.13;88.40;100089.22;6249869;28;20056;-75
2021/10/30 13:12:08;;;;;;;7.07;2.75;;;;;;;12.18;87.24;100087.94;6249874;28;20543;-74
2021/10/30 13:15:10;;;;;;;4.35;2.55;;;;;;;12.25;88.22;100095.41;6247648;28;20520;-74
2021/10/30 13:18:13;;;;;;;5.57;3.10;;;;;;;12.28;90.05;100111.84;6249547;28;20221;-75
2021/10/30 13:21:18;;;;;;;6.40;3.40;;;;;;;12.32;87.70;100107.19;6228609;28;20050;-74
2021/10/30 13:24:20;;;;;;;4.35;2.80;;;;;;;12.37;84.41;100084.84;6224846;28;20425;-75
2021/10/30 13:27:21;;;;;;;5.38;2.97;;;;;;;12.34;84.78;100089.47;6226092;28;20515;-74
2021/10/30 13:30:23;;;;;;;8.07;2.75;;;;;;;12.33;84.33;100098.34;6228984;28;20057;-74
2021/10/30 13:33:27;;;;;;;5.68;3.30;;;;;;;12.29;84.84;100099.50;6248887;28;20053;-75
2021/10/30 13:36:28;;;;;;;7.43;3.67;;;;;;;12.28;84.82;100105.72;6248493;28;20052;-74
2021/10/30 13:39:30;;;;;;;5.07;3.35;;;;;;;12.27;84.31;100104.88;6249069;28;20056;-74
2021/10/30 13:42:31;;;;;;;5.07;3.08;;;;;;;12.32;82.55;100107.19;6249167;28;20669;-74
2021/10/30 13:45:33;;;;;;;7.07;3.42;;;;;;;12.34;79.20;100098.22;6247113;28;20049;-75
2021/10/30 13:48:35;;;;;;;6.93;3.15;;;;;;;12.32;82.55;100101.94;6248997;28;20416;-75
2021/10/30 13:51:37;;;;;;;7.47;3.50;;;;;;;12.15;84.10;100096.03;6231997;28;20042;-75
2021/10/30 13:54:38;;;;;;;7.13;3.38;;;;;;;11.93;87.60;100099.31;6224561;28;20042;-75
2021/10/30 13:57:40;;;;;;;10.52;4.07;;;;;;;11.90;93.14;100093.47;6247667;28;20046;-75
2021/10/30 14:00:41;;;;;;;3.83;2.90;;;;;;;11.75;96.55;100086.56;6247170;28;20119;-75
2021/10/30 14:03:44;;;;;;;5.20;2.60;;;;;;;11.69;98.88;100072.88;6246443;28;20058;-75
2021/10/30 14:06:45;;;;;;;5.30;3.03;;;;;;;11.66;98.51;100066.97;6245172;28;20053;-75
2021/10/30 14:09:47;;;;;;;7.22;2.95;;;;;;;11.66;98.39;100074.88;6248836;28;20060;-75